sensor_id;sensor_type;location;lat;lon;timestamp;pressure;altitude;pressure_sealevel;temperature;humidity
28927;BME280;16038;47.692;9.400;2023-12-20T00:02:07;96861.34;;;3.77;100.00
28927;BME280;16038;47.692;9.400;2023-12-20T00:04:33;96873.63;;;3.83;100.00
28927;BME280;16038;47.692;9.400;2023-12-20T00:06:58;96882.41;;;3.89;100.00
28927;BME280;16038;47.692;9.400;2023-12-20T00:09:23;96874.09;;;3.77;100.00
28927;BME280;16038;47.692;9.400;2023-12-20T00:11:49;96887.97;;;3.75;100.00
28927;BME280;16038;47.692;9.400;2023-12-20T00:14:15;96886.03;;;3.67;100.00
28927;BME280;16038;47.692;9.400;2023-12-20T00:16:41;96859.25;;;3.74;100.00
28927;BME280;16038;47.692;9.400;2023-12-20T00:19:06;96867.38;;;3.74;100.00
28927;BME280;16038;47.692;9.400;2023-12-20T00:21:32;96872.34;;;3.81;100.00
28927;BME280;16038;47.692;9.400;2023-12-20T00:23:58;96870.75;;;3.80;100.00
28927;BME280;16038;47.692;9.400;2023-12-20T00:26:23;96856.09;;;3.81;100.00
28927;BME280;16038;47.692;9.400;2023-12-20T00:28:48;96840.81;;;3.76;100.00
28927;BME280;16038;47.692;9.400;2023-12-20T00:31:14;96840.63;;;3.73;100.00
28927;BME280;16038;47.692;9.400;2023-12-20T00:33:39;96843.00;;;3.83;100.00
28927;BME280;16038;47.692;9.400;2023-12-20T00:36:08;96834.41;;;3.72;100.00
28927;BME280;16038;47.692;9.400;2023-12-20T00:38:34;96843.16;;;3.78;100.00
28927;BME280;16038;47.692;9.400;2023-12-20T00:40:59;96846.69;;;3.70;100.00
28927;BME280;16038;47.692;9.400;2023-12-20T00:43:25;96838.25;;;3.71;100.00
28927;BME280;16038;47.692;9.400;2023-12-20T00:45:50;96838.56;;;3.70;100.00
28927;BME280;16038;47.692;9.400;2023-12-20T00:48:16;96839.03;;;3.80;100.00
28927;BME280;16038;47.692;9.400;2023-12-20T00:50:41;96830.75;;;3.77;100.00
28927;BME280;16038;47.692;9.400;2023-12-20T00:53:06;96835.84;;;3.87;100.00
28927;BME280;16038;47.692;9.400;2023-12-20T00:55:32;96830.44;;;3.87;100.00
28927;BME280;16038;47.692;9.400;2023-12-20T00:57:57;96835.03;;;3.87;100.00
28927;BME280;16038;47.692;9.400;2023-12-20T01:00:24;96827.88;;;3.82;100.00
28927;BME280;16038;47.692;9.400;2023-12-20T01:02:50;96816.22;;;3.81;100.00
28927;BME280;16038;47.692;9.400;2023-12-20T01:05:17;96820.06;;;3.89;100.00
28927;BME280;16038;47.692;9.400;2023-12-20T01:07:43;96805.22;;;3.87;100.00
28927;BME280;16038;47.692;9.400;2023-12-20T01:10:08;96807.47;;;4.02;100.00
28927;BME280;16038;47.692;9.400;2023-12-20T01:12:35;96796.94;;;4.00;100.00
28927;BME280;16038;47.692;9.400;2023-12-20T01:15:01;96796.47;;;4.07;100.00
28927;BME280;16038;47.692;9.400;2023-12-20T01:17:26;96791.53;;;3.92;100.00
28927;BME280;16038;47.692;9.400;2023-12-20T01:19:52;96795.53;;;3.94;100.00
28927;BME280;16038;47.692;9.400;2023-12-20T01:22:17;96799.81;;;3.95;100.00
28927;BME280;16038;47.692;9.400;2023-12-20T01:24:42;96795.19;;;3.96;100.00
28927;BME280;16038;47.692;9.400;2023-12-20T01:27:08;96798.56;;;3.93;100.00
28927;BME280;16038;47.692;9.400;2023-12-20T01:29:33;96787.88;;;3.96;100.00
28927;BME280;16038;47.692;9.400;2023-12-20T01:31:59;96802.06;;;3.93;100.00
28927;BME280;16038;47.692;9.400;2023-12-20T01:34:24;96807.94;;;3.87;100.00
28927;BME280;16038;47.692;9.400;2023-12-20T01:36:50;96807.31;;;3.81;100.00
28927;BME280;16038;47.692;9.400;2023-12-20T01:39:15;96797.78;;;3.83;100.00
28927;BME280;16038;47.692;9.400;2023-12-20T01:41:40;96804.13;;;3.96;100.00
28927;BME280;16038;47.692;9.400;2023-12-20T01:44:06;96789.88;;;4.26;100.00
28927;BME280;16038;47.692;9.400;2023-12-20T01:46:31;96793.06;;;4.28;100.00
28927;BME280;16038;47.692;9.400;2023-12-20T01:48:57;96795.00;;;4.18;100.00
28927;BME280;16038;47.692;9.400;2023-12-20T01:51:22;96797.72;;;4.01;100.00
28927;BME280;16038;47.692;9.400;2023-12-20T01:53:48;96811.13;;;3.89;100.00
28927;BME280;16038;47.692;9.400;2023-12-20T01:56:15;96811.94;;;3.80;100.00
28927;BME280;16038;47.692;9.400;2023-12-20T01:58:44;96810.34;;;3.88;100.00
28927;BME280;16038;47.692;9.400;2023-12-20T02:01:11;96805.91;;;3.83;100.00
28927;BME280;16038;47.692;9.400;2023-12-20T02:03:37;96796.94;;;3.83;100.00
28927;BME280;16038;47.692;9.400;2023-12-20T02:06:04;96789.78;;;3.78;100.00
28927;BME280;16038;47.692;9.400;2023-12-20T02:08:30;96793.13;;;3.75;100.00
28927;BME280;16038;47.692;9.400;2023-12-20T02:10:56;96792.81;;;3.77;100.00
28927;BME280;16038;47.692;9.400;2023-12-20T02:13:21;96795.84;;;3.75;100.00
28927;BME280;16038;47.692;9.400;2023-12-20T02:15:46;96800.47;;;3.75;100.00
28927;BME280;16038;47.692;9.400;2023-12-20T02:18:12;96802.06;;;3.76;100.00
28927;BME280;16038;47.692;9.400;2023-12-20T02:20:40;96804.44;;;3.77;100.00
28927;BME280;16038;47.692;9.400;2023-12-20T02:23:06;96809.56;;;3.88;100.00
28927;BME280;16038;47.692;9.400;2023-12-20T02:25:31;96785.31;;;4.00;100.00
28927;BME280;16038;47.692;9.400;2023-12-20T02:27:57;96783.25;;;3.88;100.00
28927;BME280;16038;47.692;9.400;2023-12-20T02:30:22;96789.13;;;3.90;100.00
28927;BME280;16038;47.692;9.400;2023-12-20T02:32:49;96780.38;;;3.93;100.00
28927;BME280;16038;47.692;9.400;2023-12-20T02:35:15;96778.91;;;4.05;100.00
28927;BME280;16038;47.692;9.400;2023-12-20T02:37:40;96769.66;;;4.06;100.00
28927;BME280;16038;47.692;9.400;2023-12-20T02:40:06;96773.47;;;4.13;100.00
28927;BME280;16038;47.692;9.400;2023-12-20T02:42:31;96777.13;;;4.09;100.00
28927;BME280;16038;47.692;9.400;2023-12-20T02:44:57;96776.94;;;4.31;100.00
28927;BME280;16038;47.692;9.400;2023-12-20T02:47:22;96765.41;;;4.43;100.00
28927;BME280;16038;47.692;9.400;2023-12-20T02:49:48;96768.16;;;4.34;100.00
28927;BME280;16038;47.692;9.400;2023-12-20T02:52:14;96770.44;;;4.24;100.00
28927;BME280;16038;47.692;9.400;2023-12-20T02:54:41;96771.38;;;4.19;100.00
28927;BME280;16038;47.692;9.400;2023-12-20T02:57:06;96766.44;;;4.21;100.00
28927;BME280;16038;47.692;9.400;2023-12-20T02:59:31;96772.03;;;4.16;100.00
28927;BME280;16038;47.692;9.400;2023-12-20T03:01:57;96767.75;;;4.06;100.00
28927;BME280;16038;47.692;9.400;2023-12-20T03:04:22;96774.31;;;3.88;100.00
28927;BME280;16038;47.692;9.400;2023-12-20T03:06:48;96772.72;;;3.87;100.00
28927;BME280;16038;47.692;9.400;2023-12-20T03:09:13;96774.50;;;3.82;100.00
28927;BME280;16038;47.692;9.400;2023-12-20T03:11:39;96774.00;;;3.89;100.00
28927;BME280;16038;47.692;9.400;2023-12-20T03:14:04;96775.91;;;3.89;100.00
28927;BME280;16038;47.692;9.400;2023-12-20T03:16:30;96778.59;;;3.89;100.00
28927;BME280;16038;47.692;9.400;2023-12-20T03:18:56;96781.16;;;3.85;100.00
28927;BME280;16038;47.692;9.400;2023-12-20T03:21:21;96787.41;;;3.94;100.00
28927;BME280;16038;47.692;9.400;2023-12-20T03:23:47;96789.13;;;3.99;100.00
28927;BME280;16038;47.692;9.400;2023-12-20T03:26:13;96780.97;;;4.08;100.00
28927;BME280;16038;47.692;9.400;2023-12-20T03:28:38;96779.84;;;4.09;100.00
28927;BME280;16038;47.692;9.400;2023-12-20T03:31:04;96770.63;;;3.92;100.00
28927;BME280;16038;47.692;9.400;2023-12-20T03:33:29;96776.69;;;3.98;100.00
28927;BME280;16038;47.692;9.400;2023-12-20T03:35:55;96778.59;;;4.06;100.00
28927;BME280;16038;47.692;9.400;2023-12-20T03:38:21;96775.72;;;4.11;100.00
28927;BME280;16038;47.692;9.400;2023-12-20T03:40:47;96778.44;;;4.02;100.00
28927;BME280;16038;47.692;9.400;2023-12-20T03:43:12;96783.84;;;4.02;100.00
28927;BME280;16038;47.692;9.400;2023-12-20T03:45:37;96784.00;;;4.06;100.00
28927;BME280;16038;47.692;9.400;2023-12-20T03:48:03;96785.78;;;4.02;100.00
28927;BME280;16038;47.692;9.400;2023-12-20T03:50:29;96790.19;;;4.24;100.00
28927;BME280;16038;47.692;9.400;2023-12-20T03:52:54;96786.06;;;4.18;100.00
28927;BME280;16038;47.692;9.400;2023-12-20T03:55:19;96785.78;;;4.11;100.00
28927;BME280;16038;47.692;9.400;2023-12-20T03:57:45;96782.25;;;4.01;100.00
28927;BME280;16038;47.692;9.400;2023-12-20T04:00:11;96796.63;;;3.85;100.00
28927;BME280;16038;47.692;9.400;2023-12-20T04:02:40;96795.69;;;3.89;100.00
28927;BME280;16038;47.692;9.400;2023-12-20T04:05:06;96791.53;;;3.83;100.00
28927;BME280;16038;47.692;9.400;2023-12-20T04:07:32;96805.41;;;3.81;100.00
28927;BME280;16038;47.692;9.400;2023-12-20T04:09:58;96801.91;;;3.72;100.00
28927;BME280;16038;47.692;9.400;2023-12-20T04:12:24;96800.47;;;3.57;100.00
28927;BME280;16038;47.692;9.400;2023-12-20T04:14:49;96802.53;;;3.52;100.00
28927;BME280;16038;47.692;9.400;2023-12-20T04:17:17;96807.50;;;3.50;100.00
28927;BME280;16038;47.692;9.400;2023-12-20T04:19:43;96814.31;;;3.47;100.00
28927;BME280;16038;47.692;9.400;2023-12-20T04:22:08;96810.34;;;3.44;100.00
28927;BME280;16038;47.692;9.400;2023-12-20T04:24:34;96810.19;;;3.41;100.00
28927;BME280;16038;47.692;9.400;2023-12-20T04:26:59;96811.28;;;3.49;100.00
28927;BME280;16038;47.692;9.400;2023-12-20T04:29:24;96831.19;;;3.53;100.00
28927;BME280;16038;47.692;9.400;2023-12-20T04:31:50;96828.16;;;3.45;100.00
28927;BME280;16038;47.692;9.400;2023-12-20T04:34:17;96827.53;;;3.49;100.00
28927;BME280;16038;47.692;9.400;2023-12-20T04:36:42;96823.41;;;3.51;100.00
28927;BME280;16038;47.692;9.400;2023-12-20T04:39:08;96820.38;;;3.44;100.00
28927;BME280;16038;47.692;9.400;2023-12-20T04:41:33;96830.72;;;3.42;100.00
28927;BME280;16038;47.692;9.400;2023-12-20T04:43:59;96839.66;;;3.42;100.00
28927;BME280;16038;47.692;9.400;2023-12-20T04:46:24;96840.28;;;3.39;100.00
28927;BME280;16038;47.692;9.400;2023-12-20T04:48:49;96846.97;;;3.33;100.00
28927;BME280;16038;47.692;9.400;2023-12-20T04:51:15;96855.72;;;3.39;100.00
28927;BME280;16038;47.692;9.400;2023-12-20T04:53:40;96848.88;;;3.41;100.00
28927;BME280;16038;47.692;9.400;2023-12-20T04:56:06;96853.34;;;3.46;100.00
28927;BME280;16038;47.692;9.400;2023-12-20T04:58:31;96854.59;;;3.40;100.00
28927;BME280;16038;47.692;9.400;2023-12-20T05:00:56;96862.41;;;3.41;100.00
28927;BME280;16038;47.692;9.400;2023-12-20T05:03:22;96859.22;;;3.39;100.00
28927;BME280;16038;47.692;9.400;2023-12-20T05:05:47;96864.66;;;3.39;100.00
28927;BME280;16038;47.692;9.400;2023-12-20T05:08:13;96876.75;;;3.42;100.00
28927;BME280;16038;47.692;9.400;2023-12-20T05:10:38;96871.34;;;3.42;100.00
28927;BME280;16038;47.692;9.400;2023-12-20T05:13:05;96870.25;;;3.52;100.00
28927;BME280;16038;47.692;9.400;2023-12-20T05:15:31;96876.44;;;3.52;100.00
28927;BME280;16038;47.692;9.400;2023-12-20T05:17:56;96872.81;;;3.57;100.00
28927;BME280;16038;47.692;9.400;2023-12-20T05:20:21;96870.56;;;3.59;100.00
28927;BME280;16038;47.692;9.400;2023-12-20T05:22:48;96879.31;;;3.56;100.00
28927;BME280;16038;47.692;9.400;2023-12-20T05:25:13;96873.28;;;3.59;100.00
28927;BME280;16038;47.692;9.400;2023-12-20T05:27:38;96870.75;;;3.62;100.00
28927;BME280;16038;47.692;9.400;2023-12-20T05:30:04;96872.81;;;3.66;100.00
28927;BME280;16038;47.692;9.400;2023-12-20T05:32:30;96879.66;;;3.63;100.00
28927;BME280;16038;47.692;9.400;2023-12-20T05:34:56;96875.69;;;3.69;100.00
28927;BME280;16038;47.692;9.400;2023-12-20T05:37:21;96878.56;;;3.64;100.00
28927;BME280;16038;47.692;9.400;2023-12-20T05:39:47;96882.06;;;3.64;100.00
28927;BME280;16038;47.692;9.400;2023-12-20T05:42:12;96886.53;;;3.60;100.00
28927;BME280;16038;47.692;9.400;2023-12-20T05:44:37;96896.69;;;3.63;100.00
28927;BME280;16038;47.692;9.400;2023-12-20T05:47:03;96904.66;;;3.60;100.00
28927;BME280;16038;47.692;9.400;2023-12-20T05:49:28;96904.81;;;3.63;100.00
28927;BME280;16038;47.692;9.400;2023-12-20T05:51:54;96901.81;;;3.65;100.00
28927;BME280;16038;47.692;9.400;2023-12-20T05:54:19;96905.16;;;3.62;100.00
28927;BME280;16038;47.692;9.400;2023-12-20T05:56:45;96909.63;;;3.67;100.00
28927;BME280;16038;47.692;9.400;2023-12-20T05:59:10;96912.94;;;3.63;100.00
28927;BME280;16038;47.692;9.400;2023-12-20T06:01:35;96910.41;;;3.67;100.00
28927;BME280;16038;47.692;9.400;2023-12-20T06:04:01;96908.81;;;3.66;100.00
28927;BME280;16038;47.692;9.400;2023-12-20T06:06:26;96902.44;;;3.71;100.00
28927;BME280;16038;47.692;9.400;2023-12-20T06:08:51;96907.06;;;3.70;100.00
28927;BME280;16038;47.692;9.400;2023-12-20T06:11:17;96910.91;;;3.69;100.00
28927;BME280;16038;47.692;9.400;2023-12-20T06:13:42;96914.09;;;3.71;100.00
28927;BME280;16038;47.692;9.400;2023-12-20T06:16:07;96916.00;;;3.71;100.00
28927;BME280;16038;47.692;9.400;2023-12-20T06:18:33;96916.00;;;3.71;100.00
28927;BME280;16038;47.692;9.400;2023-12-20T06:20:58;96915.84;;;3.76;100.00
28927;BME280;16038;47.692;9.400;2023-12-20T06:23:24;96907.84;;;3.71;100.00
28927;BME280;16038;47.692;9.400;2023-12-20T06:25:49;96913.44;;;3.74;100.00
28927;BME280;16038;47.692;9.400;2023-12-20T06:28:15;96909.78;;;3.70;100.00
28927;BME280;16038;47.692;9.400;2023-12-20T06:30:40;96921.09;;;3.72;100.00
28927;BME280;16038;47.692;9.400;2023-12-20T06:33:06;96930.03;;;3.73;100.00
28927;BME280;16038;47.692;9.400;2023-12-20T06:35:32;96935.78;;;3.71;100.00
28927;BME280;16038;47.692;9.400;2023-12-20T06:37:57;96929.22;;;3.72;100.00
28927;BME280;16038;47.692;9.400;2023-12-20T06:40:23;96939.44;;;3.75;100.00
28927;BME280;16038;47.692;9.400;2023-12-20T06:42:48;96938.50;;;3.80;100.00
28927;BME280;16038;47.692;9.400;2023-12-20T06:45:14;96941.53;;;3.78;100.00
28927;BME280;16038;47.692;9.400;2023-12-20T06:47:39;96941.53;;;3.78;100.00
28927;BME280;16038;47.692;9.400;2023-12-20T06:50:05;96943.91;;;3.80;100.00
28927;BME280;16038;47.692;9.400;2023-12-20T06:52:31;96936.88;;;3.79;100.00
28927;BME280;16038;47.692;9.400;2023-12-20T06:54:56;96942.47;;;3.82;100.00
28927;BME280;16038;47.692;9.400;2023-12-20T06:57:21;96938.97;;;3.82;100.00
28927;BME280;16038;47.692;9.400;2023-12-20T06:59:47;96946.28;;;3.81;100.00
28927;BME280;16038;47.692;9.400;2023-12-20T07:02:12;96949.50;;;4.01;100.00
28927;BME280;16038;47.692;9.400;2023-12-20T07:04:41;96948.56;;;4.06;100.00
28927;BME280;16038;47.692;9.400;2023-12-20T07:07:06;96947.91;;;4.17;100.00
28927;BME280;16038;47.692;9.400;2023-12-20T07:09:32;96951.09;;;4.19;100.00
28927;BME280;16038;47.692;9.400;2023-12-20T07:11:58;96952.84;;;4.07;100.00
28927;BME280;16038;47.692;9.400;2023-12-20T07:14:23;96957.66;;;4.10;100.00
28927;BME280;16038;47.692;9.400;2023-12-20T07:16:49;96958.59;;;4.05;100.00
28927;BME280;16038;47.692;9.400;2023-12-20T07:19:14;96952.06;;;4.06;100.00
28927;BME280;16038;47.692;9.400;2023-12-20T07:21:40;96965.13;;;4.04;100.00
28927;BME280;16038;47.692;9.400;2023-12-20T07:24:05;96960.34;;;4.01;100.00
28927;BME280;16038;47.692;9.400;2023-12-20T07:26:30;96960.66;;;3.99;100.00
28927;BME280;16038;47.692;9.400;2023-12-20T07:28:56;96956.84;;;4.00;100.00
28927;BME280;16038;47.692;9.400;2023-12-20T07:31:21;96965.91;;;3.96;100.00
28927;BME280;16038;47.692;9.400;2023-12-20T07:33:47;96966.88;;;3.91;100.00
28927;BME280;16038;47.692;9.400;2023-12-20T07:36:12;96968.00;;;3.99;100.00
28927;BME280;16038;47.692;9.400;2023-12-20T07:38:38;96971.03;;;3.97;100.00
28927;BME280;16038;47.692;9.400;2023-12-20T07:41:03;96967.03;;;3.95;100.00
28927;BME280;16038;47.692;9.400;2023-12-20T07:43:29;96971.69;;;3.94;100.00
28927;BME280;16038;47.692;9.400;2023-12-20T07:45:54;96981.06;;;3.97;100.00
28927;BME280;16038;47.692;9.400;2023-12-20T07:48:19;96983.00;;;3.96;100.00
28927;BME280;16038;47.692;9.400;2023-12-20T07:50:45;96994.75;;;3.92;100.00
28927;BME280;16038;47.692;9.400;2023-12-20T07:53:10;96993.00;;;3.96;100.00
28927;BME280;16038;47.692;9.400;2023-12-20T07:55:35;96991.59;;;3.98;100.00
28927;BME280;16038;47.692;9.400;2023-12-20T07:58:01;96994.00;;;4.00;100.00
28927;BME280;16038;47.692;9.400;2023-12-20T08:00:27;96991.91;;;3.97;100.00
28927;BME280;16038;47.692;9.400;2023-12-20T08:02:53;96991.59;;;3.98;100.00
28927;BME280;16038;47.692;9.400;2023-12-20T08:05:18;97000.03;;;3.97;100.00
28927;BME280;16038;47.692;9.400;2023-12-20T08:07:43;96997.66;;;4.04;100.00
28927;BME280;16038;47.692;9.400;2023-12-20T08:10:09;97000.25;;;4.18;100.00
28927;BME280;16038;47.692;9.400;2023-12-20T08:12:34;97011.69;;;4.06;100.00
28927;BME280;16038;47.692;9.400;2023-12-20T08:15:01;97006.91;;;4.12;100.00
28927;BME280;16038;47.692;9.400;2023-12-20T08:17:26;97005.34;;;4.11;100.00
28927;BME280;16038;47.692;9.400;2023-12-20T08:19:52;97015.66;;;4.09;100.00
28927;BME280;16038;47.692;9.400;2023-12-20T08:22:17;97002.78;;;4.14;100.00
28927;BME280;16038;47.692;9.400;2023-12-20T08:24:42;97001.97;;;4.14;100.00
28927;BME280;16038;47.692;9.400;2023-12-20T08:27:08;96997.69;;;4.21;100.00
28927;BME280;16038;47.692;9.400;2023-12-20T08:29:34;97012.84;;;4.31;100.00
28927;BME280;16038;47.692;9.400;2023-12-20T08:32:00;97003.91;;;4.31;100.00
28927;BME280;16038;47.692;9.400;2023-12-20T08:34:26;97007.25;;;4.28;100.00
28927;BME280;16038;47.692;9.400;2023-12-20T08:36:51;97009.50;;;4.26;100.00
28927;BME280;16038;47.692;9.400;2023-12-20T08:39:17;97010.13;;;4.31;100.00
28927;BME280;16038;47.692;9.400;2023-12-20T08:41:42;97000.25;;;4.44;100.00
28927;BME280;16038;47.692;9.400;2023-12-20T08:44:08;97009.66;;;4.38;100.00
28927;BME280;16038;47.692;9.400;2023-12-20T08:46:34;97011.41;;;4.34;100.00
28927;BME280;16038;47.692;9.400;2023-12-20T08:49:00;97015.06;;;4.29;100.00
28927;BME280;16038;47.692;9.400;2023-12-20T08:51:26;97003.59;;;4.32;100.00
28927;BME280;16038;47.692;9.400;2023-12-20T08:53:52;97011.41;;;4.34;100.00
28927;BME280;16038;47.692;9.400;2023-12-20T08:56:17;97006.31;;;4.32;100.00
28927;BME280;16038;47.692;9.400;2023-12-20T08:58:44;97009.50;;;4.34;100.00
28927;BME280;16038;47.692;9.400;2023-12-20T09:01:10;96997.22;;;4.46;100.00
28927;BME280;16038;47.692;9.400;2023-12-20T09:03:35;96994.34;;;4.42;100.00
28927;BME280;16038;47.692;9.400;2023-12-20T09:06:00;96986.03;;;4.65;100.00
28927;BME280;16038;47.692;9.400;2023-12-20T09:08:26;96979.16;;;4.67;100.00
28927;BME280;16038;47.692;9.400;2023-12-20T09:10:51;96983.50;;;4.59;100.00
28927;BME280;16038;47.692;9.400;2023-12-20T09:13:17;96985.53;;;4.63;100.00
28927;BME280;16038;47.692;9.400;2023-12-20T09:15:42;97001.66;;;4.68;100.00
28927;BME280;16038;47.692;9.400;2023-12-20T09:18:08;97001.81;;;4.71;100.00
28927;BME280;16038;47.692;9.400;2023-12-20T09:20:34;96992.72;;;4.67;100.00
28927;BME280;16038;47.692;9.400;2023-12-20T09:22:59;97005.19;;;4.68;100.00
28927;BME280;16038;47.692;9.400;2023-12-20T09:25:25;97006.00;;;4.69;100.00
28927;BME280;16038;47.692;9.400;2023-12-20T09:27:51;97005.66;;;4.70;100.00
28927;BME280;16038;47.692;9.400;2023-12-20T09:30:18;97005.00;;;4.73;100.00
28927;BME280;16038;47.692;9.400;2023-12-20T09:32:44;97004.84;;;4.78;100.00
28927;BME280;16038;47.692;9.400;2023-12-20T09:35:10;96997.69;;;4.83;100.00
28927;BME280;16038;47.692;9.400;2023-12-20T09:37:35;97004.06;;;4.78;100.00
28927;BME280;16038;47.692;9.400;2023-12-20T09:40:00;96994.78;;;4.88;100.00
28927;BME280;16038;47.692;9.400;2023-12-20T09:42:48;96999.09;;;4.80;100.00
28927;BME280;16038;47.692;9.400;2023-12-20T09:45:20;96997.53;;;4.79;100.00
28927;BME280;16038;47.692;9.400;2023-12-20T09:47:45;97002.28;;;4.82;100.00
28927;BME280;16038;47.692;9.400;2023-12-20T09:50:12;97002.28;;;4.82;100.00
28927;BME280;16038;47.692;9.400;2023-12-20T09:52:39;97011.25;;;4.83;100.00
28927;BME280;16038;47.692;9.400;2023-12-20T09:55:06;97004.22;;;4.82;100.00
28927;BME280;16038;47.692;9.400;2023-12-20T09:57:33;97002.94;;;4.79;100.00
28927;BME280;16038;47.692;9.400;2023-12-20T09:59:58;97004.22;;;4.82;100.00
28927;BME280;16038;47.692;9.400;2023-12-20T10:02:25;96989.03;;;4.89;100.00
28927;BME280;16038;47.692;9.400;2023-12-20T10:04:55;96987.25;;;5.02;100.00
28927;BME280;16038;47.692;9.400;2023-12-20T10:07:20;96991.25;;;4.96;100.00
28927;BME280;16038;47.692;9.400;2023-12-20T10:09:47;96989.19;;;4.93;100.00
28927;BME280;16038;47.692;9.400;2023-12-20T10:12:13;96986.00;;;4.91;100.00
28927;BME280;16038;47.692;9.400;2023-12-20T10:14:39;96970.84;;;4.90;100.00
28927;BME280;16038;47.692;9.400;2023-12-20T10:17:05;96981.84;;;4.93;100.00
28927;BME280;16038;47.692;9.400;2023-12-20T10:19:31;96969.38;;;5.01;100.00
28927;BME280;16038;47.692;9.400;2023-12-20T10:22:01;96965.81;;;5.09;100.00
28927;BME280;16038;47.692;9.400;2023-12-20T10:24:29;96959.53;;;5.35;100.00
28927;BME280;16038;47.692;9.400;2023-12-20T10:27:04;96947.84;;;5.34;100.00
28927;BME280;16038;47.692;9.400;2023-12-20T10:29:39;96951.31;;;5.44;100.00
28927;BME280;16038;47.692;9.400;2023-12-20T10:32:27;96933.41;;;5.51;100.00
28927;BME280;16038;47.692;9.400;2023-12-20T10:34:54;96938.84;;;5.72;100.00
28927;BME280;16038;47.692;9.400;2023-12-20T10:37:20;96943.75;;;6.30;100.00
28927;BME280;16038;47.692;9.400;2023-12-20T10:39:50;96936.81;;;6.75;100.00
28927;BME280;16038;47.692;9.400;2023-12-20T10:42:19;96935.88;;;7.16;100.00
28927;BME280;16038;47.692;9.400;2023-12-20T10:44:46;96928.53;;;7.78;100.00
28927;BME280;16038;47.692;9.400;2023-12-20T10:47:13;96923.41;;;8.30;100.00
28927;BME280;16038;47.692;9.400;2023-12-20T10:49:39;96917.44;;;8.52;100.00
28927;BME280;16038;47.692;9.400;2023-12-20T10:52:05;96917.16;;;8.70;100.00
28927;BME280;16038;47.692;9.400;2023-12-20T10:54:33;96919.72;;;7.97;100.00
28927;BME280;16038;47.692;9.400;2023-12-20T10:56:58;96915.22;;;7.64;100.00
28927;BME280;16038;47.692;9.400;2023-12-20T10:59:24;96911.13;;;7.21;100.00
28927;BME280;16038;47.692;9.400;2023-12-20T11:01:50;96922.81;;;6.97;100.00
28927;BME280;16038;47.692;9.400;2023-12-20T11:04:23;96916.09;;;6.95;100.00
28927;BME280;16038;47.692;9.400;2023-12-20T11:06:59;96916.88;;;6.83;100.00
28927;BME280;16038;47.692;9.400;2023-12-20T11:09:40;96914.31;;;6.65;100.00
28927;BME280;16038;47.692;9.400;2023-12-20T11:14:58;96907.69;;;6.87;100.00
28927;BME280;16038;47.692;9.400;2023-12-20T11:17:29;96905.88;;;6.79;100.00
28927;BME280;16038;47.692;9.400;2023-12-20T11:22:29;96900.28;;;6.76;100.00
28927;BME280;16038;47.692;9.400;2023-12-20T11:24:59;96903.47;;;6.78;100.00
28927;BME280;16038;47.692;9.400;2023-12-20T11:27:27;96899.16;;;6.77;100.00
28927;BME280;16038;47.692;9.400;2023-12-20T11:29:55;96896.72;;;7.08;100.00
28927;BME280;16038;47.692;9.400;2023-12-20T11:35:00;96898.06;;;6.90;100.00
28927;BME280;16038;47.692;9.400;2023-12-20T11:37:35;96901.56;;;6.91;100.00
28927;BME280;16038;47.692;9.400;2023-12-20T11:40:03;96896.34;;;6.98;100.00
28927;BME280;16038;47.692;9.400;2023-12-20T11:42:43;96892.88;;;7.10;100.00
28927;BME280;16038;47.692;9.400;2023-12-20T11:45:18;96883.75;;;7.05;100.00
28927;BME280;16038;47.692;9.400;2023-12-20T11:47:48;96888.41;;;6.93;100.00
28927;BME280;16038;47.692;9.400;2023-12-20T11:50:18;96891.78;;;6.77;100.00
28927;BME280;16038;47.692;9.400;2023-12-20T11:52:44;96879.63;;;6.75;100.00
28927;BME280;16038;47.692;9.400;2023-12-20T11:55:09;96874.56;;;6.98;100.00
28927;BME280;16038;47.692;9.400;2023-12-20T11:57:36;96879.59;;;7.08;100.00
28927;BME280;16038;47.692;9.400;2023-12-20T12:00:02;96875.03;;;7.00;100.00
28927;BME280;16038;47.692;9.400;2023-12-20T12:02:28;96884.88;;;6.80;100.00
28927;BME280;16038;47.692;9.400;2023-12-20T12:04:54;96881.00;;;6.68;100.00
28927;BME280;16038;47.692;9.400;2023-12-20T12:07:20;96884.34;;;6.53;100.00
28927;BME280;16038;47.692;9.400;2023-12-20T12:09:45;96883.47;;;6.61;100.00
28927;BME280;16038;47.692;9.400;2023-12-20T12:12:12;96886.06;;;6.58;100.00
28927;BME280;16038;47.692;9.400;2023-12-20T12:14:37;96875.59;;;6.47;100.00
28927;BME280;16038;47.692;9.400;2023-12-20T12:17:04;96875.69;;;6.39;100.00
28927;BME280;16038;47.692;9.400;2023-12-20T12:19:30;96880.34;;;6.38;100.00
28927;BME280;16038;47.692;9.400;2023-12-20T12:22:08;96877.03;;;6.32;100.00
28927;BME280;16038;47.692;9.400;2023-12-20T12:24:39;96877.56;;;6.26;100.00
28927;BME280;16038;47.692;9.400;2023-12-20T12:27:08;96873.72;;;6.27;100.00
28927;BME280;16038;47.692;9.400;2023-12-20T12:29:37;96872.91;;;6.26;100.00
28927;BME280;16038;47.692;9.400;2023-12-20T12:32:06;96856.84;;;6.34;100.00
28927;BME280;16038;47.692;9.400;2023-12-20T12:34:32;96860.16;;;6.39;100.00
28927;BME280;16038;47.692;9.400;2023-12-20T12:36:58;96870.44;;;6.67;100.00
28927;BME280;16038;47.692;9.400;2023-12-20T12:39:24;96874.28;;;6.66;100.00
28927;BME280;16038;47.692;9.400;2023-12-20T12:41:53;96863.38;;;6.66;100.00
28927;BME280;16038;47.692;9.400;2023-12-20T12:44:19;96863.25;;;6.50;100.00
28927;BME280;16038;47.692;9.400;2023-12-20T12:46:45;96866.31;;;6.48;100.00
28927;BME280;16038;47.692;9.400;2023-12-20T12:49:11;96866.06;;;6.41;100.00
28927;BME280;16038;47.692;9.400;2023-12-20T12:51:36;96868.41;;;6.30;100.00
28927;BME280;16038;47.692;9.400;2023-12-20T12:54:02;96869.00;;;6.36;100.00
28927;BME280;16038;47.692;9.400;2023-12-20T12:56:28;96867.56;;;6.51;100.00
28927;BME280;16038;47.692;9.400;2023-12-20T12:58:54;96864.91;;;6.42;100.00
28927;BME280;16038;47.692;9.400;2023-12-20T13:01:20;96875.97;;;6.58;100.00
28927;BME280;16038;47.692;9.400;2023-12-20T13:03:45;96876.09;;;6.62;100.00